HOE weather

Organizacion Editorial Mexicana Heliport
Cuauhtémoc, Distrito Federal, Mexico

Public forecast

Using degrees Celsius for public forecast. Weather courtesy of forecast.io.

METAR (pilot weather report)

Closest report is Licenciado Benito Juarez International Airport, 5.0 nm (9.2 km) E. Retrieved 2019/06/20 00:10 UTC (7 minutes ago):

MMMX 200010Z 06017KT 7SM SCT020CB BKN080 OVC200 20/11 A3028 NOSIG RMK 8/963 HZY BINOVC

TAF (pilot weather forecast)

Forecast is more than 12 hours old.

Closest forecast is Licenciado Benito Juarez International Airport, 5.0 nm (9.2 km) E. Retrieved 2019/06/19 00:46 UTC (24 hours ago):

TAF MMMX 192339Z 2000/2106 25005KT P6SM BKN020CB BKN080 OVC250 TX26/2021Z TN15/2012Z TEMPO 2001/2005 4SM TSRA BKN020CB FM200600 34005KT P6SM SCT020 BKN080 BKN250 FM201800 32015KT P6SM BKN020 BKN080 BKN250 FM210100 02008KT 5SM -RA BKN020CB TEMPO 2101/2105 3SM TSRA OVC020CB